sensor_id;sensor_type;location;lat;lon;timestamp;pressure;altitude;pressure_sealevel;temperature;humidity
56182;BME280;51963;46.052;14.544;2023-02-18T00:01:36;99201.63;;;7.36;100.00
56182;BME280;51963;46.052;14.544;2023-02-18T00:04:02;99202.16;;;7.39;100.00
56182;BME280;51963;46.052;14.544;2023-02-18T00:06:29;99198.84;;;7.37;100.00
56182;BME280;51963;46.052;14.544;2023-02-18T00:08:55;99199.56;;;7.29;100.00
56182;BME280;51963;46.052;14.544;2023-02-18T00:11:23;99200.13;;;7.33;100.00
56182;BME280;51963;46.052;14.544;2023-02-18T00:13:52;99198.84;;;7.37;100.00
56182;BME280;51963;46.052;14.544;2023-02-18T00:16:19;99194.97;;;7.41;100.00
56182;BME280;51963;46.052;14.544;2023-02-18T00:18:45;99194.28;;;7.39;100.00
56182;BME280;51963;46.052;14.544;2023-02-18T00:21:10;99195.53;;;7.35;100.00
56182;BME280;51963;46.052;14.544;2023-02-18T00:23:36;99201.19;;;7.40;100.00
56182;BME280;51963;46.052;14.544;2023-02-18T00:26:12;99204.13;;;7.37;100.00
56182;BME280;51963;46.052;14.544;2023-02-18T00:28:39;99212.69;;;7.39;100.00
56182;BME280;51963;46.052;14.544;2023-02-18T00:31:11;99205.31;;;7.43;100.00
56182;BME280;51963;46.052;14.544;2023-02-18T00:33:37;99204.69;;;7.31;100.00
56182;BME280;51963;46.052;14.544;2023-02-18T00:36:03;99209.78;;;7.42;100.00
56182;BME280;51963;46.052;14.544;2023-02-18T00:38:29;99208.94;;;7.42;100.00
56182;BME280;51963;46.052;14.544;2023-02-18T00:40:54;99214.06;;;7.43;100.00
56182;BME280;51963;46.052;14.544;2023-02-18T00:43:20;99212.00;;;7.37;100.00
56182;BME280;51963;46.052;14.544;2023-02-18T00:45:45;99209.38;;;7.37;100.00
56182;BME280;51963;46.052;14.544;2023-02-18T00:48:11;99219.31;;;7.43;100.00
56182;BME280;51963;46.052;14.544;2023-02-18T00:50:36;99214.75;;;7.45;100.00
56182;BME280;51963;46.052;14.544;2023-02-18T00:53:02;99210.84;;;7.49;100.00
56182;BME280;51963;46.052;14.544;2023-02-18T00:55:29;99197.69;;;7.49;100.00
56182;BME280;51963;46.052;14.544;2023-02-18T00:57:54;99202.94;;;7.49;100.00
56182;BME280;51963;46.052;14.544;2023-02-18T01:00:20;99195.78;;;7.42;100.00
56182;BME280;51963;46.052;14.544;2023-02-18T01:02:45;99190.66;;;7.40;100.00
56182;BME280;51963;46.052;14.544;2023-02-18T01:05:11;99189.41;;;7.44;100.00
56182;BME280;51963;46.052;14.544;2023-02-18T01:07:37;99200.91;;;7.43;100.00
56182;BME280;51963;46.052;14.544;2023-02-18T01:10:04;99208.63;;;7.45;100.00
56182;BME280;51963;46.052;14.544;2023-02-18T01:12:30;99196.31;;;7.45;100.00
56182;BME280;51963;46.052;14.544;2023-02-18T01:14:55;99193.81;;;7.44;100.00
56182;BME280;51963;46.052;14.544;2023-02-18T01:17:21;99191.19;;;7.44;100.00
56182;BME280;51963;46.052;14.544;2023-02-18T01:19:46;99187.75;;;7.43;100.00
56182;BME280;51963;46.052;14.544;2023-02-18T01:22:12;99185.22;;;7.52;100.00
56182;BME280;51963;46.052;14.544;2023-02-18T01:24:37;99190.09;;;7.46;100.00
56182;BME280;51963;46.052;14.544;2023-02-18T01:27:03;99191.06;;;7.45;100.00
56182;BME280;51963;46.052;14.544;2023-02-18T01:29:29;99181.63;;;7.43;100.00
56182;BME280;51963;46.052;14.544;2023-02-18T01:31:54;99191.06;;;7.45;100.00
56182;BME280;51963;46.052;14.544;2023-02-18T01:34:20;99188.72;;;7.42;100.00
56182;BME280;51963;46.052;14.544;2023-02-18T01:36:45;99186.59;;;7.46;100.00
56182;BME280;51963;46.052;14.544;2023-02-18T01:39:11;99179.56;;;7.46;100.00
56182;BME280;51963;46.052;14.544;2023-02-18T01:41:36;99184.94;;;7.45;100.00
56182;BME280;51963;46.052;14.544;2023-02-18T01:44:09;99174.72;;;7.42;100.00
56182;BME280;51963;46.052;14.544;2023-02-18T01:46:36;99180.28;;;7.39;100.00
56182;BME280;51963;46.052;14.544;2023-02-18T01:49:01;99175.56;;;7.42;100.00
56182;BME280;51963;46.052;14.544;2023-02-18T01:51:29;99172.25;;;7.40;100.00
56182;BME280;51963;46.052;14.544;2023-02-18T01:56:33;99168.66;;;7.41;100.00
56182;BME280;51963;46.052;14.544;2023-02-18T01:59:01;99173.06;;;7.41;100.00
56182;BME280;51963;46.052;14.544;2023-02-18T02:01:28;99170.59;;;7.39;100.00
56182;BME280;51963;46.052;14.544;2023-02-18T02:03:55;99176.16;;;7.36;100.00
56182;BME280;51963;46.052;14.544;2023-02-18T02:06:21;99175.56;;;7.42;100.00
56182;BME280;51963;46.052;14.544;2023-02-18T02:08:49;99172.25;;;7.40;100.00
56182;BME280;51963;46.052;14.544;2023-02-18T02:11:19;99174.59;;;7.43;100.00
56182;BME280;51963;46.052;14.544;2023-02-18T02:16:17;99178.59;;;7.47;100.00
56182;BME280;51963;46.052;14.544;2023-02-18T02:21:29;99163.38;;;7.41;100.00
56182;BME280;51963;46.052;14.544;2023-02-18T02:32:07;99174.00;;;7.49;100.00
56182;BME280;51963;46.052;14.544;2023-02-18T02:39:55;99158.22;;;7.49;100.00
56182;BME280;51963;46.052;14.544;2023-02-18T02:42:28;99161.72;;;7.40;100.00
56182;BME280;51963;46.052;14.544;2023-02-18T02:45:03;99162.53;;;7.41;100.00
56182;BME280;51963;46.052;14.544;2023-02-18T02:50:06;99156.84;;;7.45;100.00
56182;BME280;51963;46.052;14.544;2023-02-18T02:52:36;99157.25;;;7.51;100.00
56182;BME280;51963;46.052;14.544;2023-02-18T02:55:08;99153.63;;;7.52;100.00
56182;BME280;51963;46.052;14.544;2023-02-18T02:57:43;99151.88;;;7.42;100.00
56182;BME280;51963;46.052;14.544;2023-02-18T03:00:15;99141.88;;;7.28;100.00
56182;BME280;51963;46.052;14.544;2023-02-18T03:05:23;99146.00;;;7.30;100.00
56182;BME280;51963;46.052;14.544;2023-02-18T03:21:35;99147.81;;;7.30;100.00
56182;BME280;51963;46.052;14.544;2023-02-18T03:24:06;99147.91;;;7.38;100.00
56182;BME280;51963;46.052;14.544;2023-02-18T03:26:33;99157.81;;;7.44;100.00
56182;BME280;51963;46.052;14.544;2023-02-18T03:29:02;99152.88;;;7.41;100.00
56182;BME280;51963;46.052;14.544;2023-02-18T03:31:28;99160.16;;;7.47;100.00
56182;BME280;51963;46.052;14.544;2023-02-18T03:33:58;99160.47;;;7.44;100.00
56182;BME280;51963;46.052;14.544;2023-02-18T03:36:25;99160.38;;;7.36;100.00
56182;BME280;51963;46.052;14.544;2023-02-18T03:38:55;99151.41;;;7.29;100.00
56182;BME280;51963;46.052;14.544;2023-02-18T03:41:23;99152.56;;;7.44;100.00
56182;BME280;51963;46.052;14.544;2023-02-18T03:43:49;99162.63;;;7.31;100.00
56182;BME280;51963;46.052;14.544;2023-02-18T03:46:15;99160.66;;;7.33;100.00
56182;BME280;51963;46.052;14.544;2023-02-18T03:48:42;99159.41;;;7.37;100.00
56182;BME280;51963;46.052;14.544;2023-02-18T03:51:08;99162.03;;;7.37;100.00
56182;BME280;51963;46.052;14.544;2023-02-18T03:53:33;99161.72;;;7.40;100.00
56182;BME280;51963;46.052;14.544;2023-02-18T03:55:59;99156.47;;;7.40;100.00
56182;BME280;51963;46.052;14.544;2023-02-18T03:58:24;99163.69;;;7.38;100.00
56182;BME280;51963;46.052;14.544;2023-02-18T04:00:50;99153.75;;;7.50;100.00
56182;BME280;51963;46.052;14.544;2023-02-18T04:03:15;99161.22;;;7.55;100.00
56182;BME280;51963;46.052;14.544;2023-02-18T04:05:41;99160.84;;;7.49;100.00
56182;BME280;51963;46.052;14.544;2023-02-18T04:08:06;99163.31;;;7.51;100.00
56182;BME280;51963;46.052;14.544;2023-02-18T04:10:32;99170.78;;;7.56;100.00
56182;BME280;51963;46.052;14.544;2023-02-18T04:12:57;99167.47;;;7.54;100.00
56182;BME280;51963;46.052;14.544;2023-02-18T04:15:23;99166.19;;;7.58;100.00
56182;BME280;51963;46.052;14.544;2023-02-18T04:17:48;99161.34;;;7.53;100.00
56182;BME280;51963;46.052;14.544;2023-02-18T04:20:14;99160.25;;;7.56;100.00
56182;BME280;51963;46.052;14.544;2023-02-18T04:22:41;99176.94;;;7.46;100.00
56182;BME280;51963;46.052;14.544;2023-02-18T04:25:06;99165.47;;;7.38;100.00
56182;BME280;51963;46.052;14.544;2023-02-18T04:27:32;99157.25;;;7.51;100.00
56182;BME280;51963;46.052;14.544;2023-02-18T04:29:57;99168.31;;;7.72;100.00
56182;BME280;51963;46.052;14.544;2023-02-18T04:32:23;99162.00;;;7.65;100.00
56182;BME280;51963;46.052;14.544;2023-02-18T04:34:48;99166.72;;;7.61;100.00
56182;BME280;51963;46.052;14.544;2023-02-18T04:37:14;99154.41;;;7.62;100.00
56182;BME280;51963;46.052;14.544;2023-02-18T04:39:39;99164.06;;;7.61;100.00
56182;BME280;51963;46.052;14.544;2023-02-18T04:42:05;99150.69;;;7.55;100.00
56182;BME280;51963;46.052;14.544;2023-02-18T04:44:36;99156.34;;;7.60;100.00
56182;BME280;51963;46.052;14.544;2023-02-18T04:47:02;99144.38;;;7.66;100.00
56182;BME280;51963;46.052;14.544;2023-02-18T04:49:28;99152.13;;;7.67;100.00
56182;BME280;51963;46.052;14.544;2023-02-18T04:51:53;99154.00;;;7.75;100.00
56182;BME280;51963;46.052;14.544;2023-02-18T04:54:19;99154.91;;;7.66;100.00
56182;BME280;51963;46.052;14.544;2023-02-18T04:56:44;99143.09;;;7.52;100.00
56182;BME280;51963;46.052;14.544;2023-02-18T04:59:10;99144.97;;;7.59;100.00
56182;BME280;51963;46.052;14.544;2023-02-18T05:01:36;99141.38;;;7.42;100.00
56182;BME280;51963;46.052;14.544;2023-02-18T05:04:01;99126.94;;;7.46;100.00
56182;BME280;51963;46.052;14.544;2023-02-18T05:06:27;99124.81;;;7.50;100.00
56182;BME280;51963;46.052;14.544;2023-02-18T05:08:52;99129.47;;;7.56;100.00
56182;BME280;51963;46.052;14.544;2023-02-18T05:11:18;99123.09;;;7.59;100.00
56182;BME280;51963;46.052;14.544;2023-02-18T05:13:43;99131.22;;;7.47;100.00
56182;BME280;51963;46.052;14.544;2023-02-18T05:16:08;99130.69;;;7.44;100.00
56182;BME280;51963;46.052;14.544;2023-02-18T05:18:34;99131.97;;;7.58;100.00
56182;BME280;51963;46.052;14.544;2023-02-18T05:20:59;99133.63;;;7.59;100.00
56182;BME280;51963;46.052;14.544;2023-02-18T05:23:25;99130.09;;;7.50;100.00
56182;BME280;51963;46.052;14.544;2023-02-18T05:25:50;99139.50;;;7.53;100.00
56182;BME280;51963;46.052;14.544;2023-02-18T05:28:16;99138.00;;;7.68;100.00
56182;BME280;51963;46.052;14.544;2023-02-18T05:30:41;99140.03;;;7.74;100.00
56182;BME280;51963;46.052;14.544;2023-02-18T05:33:07;99129.13;;;7.69;100.00
56182;BME280;51963;46.052;14.544;2023-02-18T05:35:32;99124.53;;;7.71;100.00
56182;BME280;51963;46.052;14.544;2023-02-18T05:37:58;99129.13;;;7.69;100.00
56182;BME280;51963;46.052;14.544;2023-02-18T05:40:24;99122.97;;;7.78;100.00
56182;BME280;51963;46.052;14.544;2023-02-18T05:42:49;99124.00;;;7.86;100.00
56182;BME280;51963;46.052;14.544;2023-02-18T05:45:15;99135.16;;;7.80;100.00
56182;BME280;51963;46.052;14.544;2023-02-18T05:47:40;99134.41;;;7.69;100.00
56182;BME280;51963;46.052;14.544;2023-02-18T05:50:06;99129.50;;;7.74;100.00
56182;BME280;51963;46.052;14.544;2023-02-18T05:52:31;99135.75;;;7.73;100.00
56182;BME280;51963;46.052;14.544;2023-02-18T05:54:57;99141.75;;;7.84;100.00
56182;BME280;51963;46.052;14.544;2023-02-18T05:57:22;99133.03;;;7.83;100.00
56182;BME280;51963;46.052;14.544;2023-02-18T05:59:48;99135.59;;;7.93;100.00
56182;BME280;51963;46.052;14.544;2023-02-18T06:02:13;99135.06;;;7.89;100.00
56182;BME280;51963;46.052;14.544;2023-02-18T06:04:40;99136.56;;;7.74;100.00
56182;BME280;51963;46.052;14.544;2023-02-18T06:07:05;99138.06;;;7.76;100.00
56182;BME280;51963;46.052;14.544;2023-02-18T06:09:31;99142.38;;;7.77;100.00
56182;BME280;51963;46.052;14.544;2023-02-18T06:11:57;99144.53;;;7.82;100.00
56182;BME280;51963;46.052;14.544;2023-02-18T06:14:23;99152.00;;;7.87;100.00
56182;BME280;51963;46.052;14.544;2023-02-18T06:16:49;99155.06;;;8.00;100.00
56182;BME280;51963;46.052;14.544;2023-02-18T06:19:14;99159.59;;;7.90;100.00
56182;BME280;51963;46.052;14.544;2023-02-18T06:21:40;99160.28;;;7.92;100.00
56182;BME280;51963;46.052;14.544;2023-02-18T06:24:05;99150.72;;;7.91;100.00
56182;BME280;51963;46.052;14.544;2023-02-18T06:26:31;99160.09;;;8.12;99.01
56182;BME280;51963;46.052;14.544;2023-02-18T06:28:57;99159.06;;;8.04;99.50
56182;BME280;51963;46.052;14.544;2023-02-18T06:31:22;99160.50;;;7.99;99.79
56182;BME280;51963;46.052;14.544;2023-02-18T06:33:48;99164.31;;;8.04;99.86
56182;BME280;51963;46.052;14.544;2023-02-18T06:36:13;99161.56;;;8.06;100.00
56182;BME280;51963;46.052;14.544;2023-02-18T06:38:40;99169.09;;;8.01;99.90
56182;BME280;51963;46.052;14.544;2023-02-18T06:41:06;99162.22;;;8.08;99.78
56182;BME280;51963;46.052;14.544;2023-02-18T06:43:31;99177.56;;;8.13;99.03
56182;BME280;51963;46.052;14.544;2023-02-18T06:45:56;99168.53;;;7.97;100.00
56182;BME280;51963;46.052;14.544;2023-02-18T06:48:22;99160.94;;;8.12;99.35
56182;BME280;51963;46.052;14.544;2023-02-18T06:50:48;99163.09;;;8.17;98.97
56182;BME280;51963;46.052;14.544;2023-02-18T06:53:14;99163.16;;;8.25;98.75
56182;BME280;51963;46.052;14.544;2023-02-18T06:55:41;99157.91;;;8.25;98.60
56182;BME280;51963;46.052;14.544;2023-02-18T06:58:08;99168.81;;;8.30;98.22
56182;BME280;51963;46.052;14.544;2023-02-18T07:00:33;99168.44;;;8.25;98.84
56182;BME280;51963;46.052;14.544;2023-02-18T07:03:00;99176.66;;;8.22;99.01
56182;BME280;51963;46.052;14.544;2023-02-18T07:05:25;99186.44;;;8.30;98.99
56182;BME280;51963;46.052;14.544;2023-02-18T07:07:51;99183.94;;;8.28;98.39
56182;BME280;51963;46.052;14.544;2023-02-18T07:10:16;99187.56;;;8.27;98.74
56182;BME280;51963;46.052;14.544;2023-02-18T07:12:42;99189.16;;;8.20;98.64
56182;BME280;51963;46.052;14.544;2023-02-18T07:15:07;99176.03;;;8.28;98.48
56182;BME280;51963;46.052;14.544;2023-02-18T07:17:33;99174.25;;;8.29;98.16
56182;BME280;51963;46.052;14.544;2023-02-18T07:19:58;99186.34;;;8.40;97.04
56182;BME280;51963;46.052;14.544;2023-02-18T07:22:25;99183.09;;;8.46;96.78
56182;BME280;51963;46.052;14.544;2023-02-18T07:24:51;99186.47;;;8.56;96.34
56182;BME280;51963;46.052;14.544;2023-02-18T07:27:17;99181.56;;;8.61;96.19
56182;BME280;51963;46.052;14.544;2023-02-18T07:29:42;99184.75;;;8.65;95.84
56182;BME280;51963;46.052;14.544;2023-02-18T07:32:08;99165.13;;;8.68;95.17
56182;BME280;51963;46.052;14.544;2023-02-18T07:34:36;99175.84;;;8.66;95.78
56182;BME280;51963;46.052;14.544;2023-02-18T07:37:01;99175.56;;;8.51;96.38
56182;BME280;51963;46.052;14.544;2023-02-18T07:39:27;99168.25;;;8.63;95.72
56182;BME280;51963;46.052;14.544;2023-02-18T07:41:52;99184.22;;;8.61;95.87
56182;BME280;51963;46.052;14.544;2023-02-18T07:44:18;99191.50;;;8.68;95.02
56182;BME280;51963;46.052;14.544;2023-02-18T07:46:43;99194.34;;;8.74;94.51
56182;BME280;51963;46.052;14.544;2023-02-18T07:49:09;99179.69;;;8.80;93.56
56182;BME280;51963;46.052;14.544;2023-02-18T07:51:34;99185.25;;;8.69;94.53
56182;BME280;51963;46.052;14.544;2023-02-18T07:54:00;99179.06;;;8.86;93.40
56182;BME280;51963;46.052;14.544;2023-02-18T07:56:25;99175.59;;;8.77;93.17
56182;BME280;51963;46.052;14.544;2023-02-18T07:58:51;99185.78;;;8.72;94.58
56182;BME280;51963;46.052;14.544;2023-02-18T08:01:16;99168.13;;;8.73;93.53
56182;BME280;51963;46.052;14.544;2023-02-18T08:03:42;99189.63;;;8.86;93.39
56182;BME280;51963;46.052;14.544;2023-02-18T08:06:12;99176.97;;;8.90;93.64
56182;BME280;51963;46.052;14.544;2023-02-18T08:08:41;99181.88;;;8.85;92.88
56182;BME280;51963;46.052;14.544;2023-02-18T08:11:07;99181.25;;;8.91;92.23
56182;BME280;51963;46.052;14.544;2023-02-18T08:13:32;99180.09;;;8.93;92.58
56182;BME280;51963;46.052;14.544;2023-02-18T08:15:58;99182.44;;;8.97;92.34
56182;BME280;51963;46.052;14.544;2023-02-18T08:18:24;99183.72;;;8.92;92.18
56182;BME280;51963;46.052;14.544;2023-02-18T08:20:50;99180.72;;;8.87;92.63
56182;BME280;51963;46.052;14.544;2023-02-18T08:23:18;99185.03;;;8.88;93.09
56182;BME280;51963;46.052;14.544;2023-02-18T08:25:44;99185.09;;;9.05;91.72
56182;BME280;51963;46.052;14.544;2023-02-18T08:28:10;99187.06;;;9.03;92.19
56182;BME280;51963;46.052;14.544;2023-02-18T08:30:35;99193.97;;;8.95;92.10
56182;BME280;51963;46.052;14.544;2023-02-18T08:33:01;99202.31;;;9.17;91.46
56182;BME280;51963;46.052;14.544;2023-02-18T08:35:26;99190.03;;;9.00;91.67
56182;BME280;51963;46.052;14.544;2023-02-18T08:37:52;99194.69;;;9.06;91.69
56182;BME280;51963;46.052;14.544;2023-02-18T08:40:17;99194.56;;;9.16;90.63
56182;BME280;51963;46.052;14.544;2023-02-18T08:42:43;99188.44;;;9.15;90.48
56182;BME280;51963;46.052;14.544;2023-02-18T08:45:08;99190.25;;;9.06;91.33
56182;BME280;51963;46.052;14.544;2023-02-18T08:47:34;99187.97;;;9.12;91.07
56182;BME280;51963;46.052;14.544;2023-02-18T08:49:59;99177.25;;;9.21;90.49
56182;BME280;51963;46.052;14.544;2023-02-18T08:52:25;99183.81;;;9.09;91.44
56182;BME280;51963;46.052;14.544;2023-02-18T08:54:51;99185.66;;;9.17;91.32
56182;BME280;51963;46.052;14.544;2023-02-18T08:57:17;99195.06;;;9.19;91.75
56182;BME280;51963;46.052;14.544;2023-02-18T08:59:42;99188.84;;;9.29;90.23
56182;BME280;51963;46.052;14.544;2023-02-18T09:02:09;99178.09;;;9.22;90.91
56182;BME280;51963;46.052;14.544;2023-02-18T09:04:37;99179.44;;;9.26;90.72
56182;BME280;51963;46.052;14.544;2023-02-18T09:07:02;99166.06;;;9.28;90.69
56182;BME280;51963;46.052;14.544;2023-02-18T09:09:28;99177.63;;;9.27;90.87
56182;BME280;51963;46.052;14.544;2023-02-18T09:11:54;99178.59;;;9.25;91.13
56182;BME280;51963;46.052;14.544;2023-02-18T09:14:19;99192.16;;;9.39;91.53
56182;BME280;51963;46.052;14.544;2023-02-18T09:16:45;99159.16;;;9.27;92.35
56182;BME280;51963;46.052;14.544;2023-02-18T09:19:11;99154.38;;;9.30;91.88
56182;BME280;51963;46.052;14.544;2023-02-18T09:21:36;99155.88;;;9.41;91.23
56182;BME280;51963;46.052;14.544;2023-02-18T09:24:02;99150.28;;;9.44;90.70
56182;BME280;51963;46.052;14.544;2023-02-18T09:26:28;99154.44;;;9.47;90.57
56182;BME280;51963;46.052;14.544;2023-02-18T09:28:53;99161.81;;;9.35;90.72
56182;BME280;51963;46.052;14.544;2023-02-18T09:31:22;99152.25;;;9.42;90.63
56182;BME280;51963;46.052;14.544;2023-02-18T09:33:52;99153.59;;;9.46;90.51
56182;BME280;51963;46.052;14.544;2023-02-18T09:36:18;99150.19;;;9.62;88.73
56182;BME280;51963;46.052;14.544;2023-02-18T09:38:44;99143.06;;;9.63;88.30
56182;BME280;51963;46.052;14.544;2023-02-18T09:41:16;99146.34;;;9.48;89.42
56182;BME280;51963;46.052;14.544;2023-02-18T09:43:48;99163.53;;;9.69;88.31
56182;BME280;51963;46.052;14.544;2023-02-18T09:46:19;99163.19;;;9.64;88.32
56182;BME280;51963;46.052;14.544;2023-02-18T09:48:46;99159.09;;;9.69;88.36
56182;BME280;51963;46.052;14.544;2023-02-18T09:51:13;99153.78;;;9.53;89.34
56182;BME280;51963;46.052;14.544;2023-02-18T09:53:39;99152.50;;;9.65;88.81
56182;BME280;51963;46.052;14.544;2023-02-18T09:56:05;99134.47;;;9.61;89.00
56182;BME280;51963;46.052;14.544;2023-02-18T09:58:31;99138.47;;;9.73;88.67
56182;BME280;51963;46.052;14.544;2023-02-18T10:03:26;99160.59;;;9.80;89.56
56182;BME280;51963;46.052;14.544;2023-02-18T10:05:57;99158.13;;;9.87;89.11
56182;BME280;51963;46.052;14.544;2023-02-18T10:08:26;99144.59;;;9.74;89.26
56182;BME280;51963;46.052;14.544;2023-02-18T10:10:52;99146.91;;;9.77;89.20
56182;BME280;51963;46.052;14.544;2023-02-18T10:13:20;99154.47;;;9.72;89.99
56182;BME280;51963;46.052;14.544;2023-02-18T10:15:47;99150.34;;;9.77;89.98
56182;BME280;51963;46.052;14.544;2023-02-18T10:18:27;99168.69;;;9.79;90.14
56182;BME280;51963;46.052;14.544;2023-02-18T10:20:56;99146.72;;;9.70;90.79
56182;BME280;51963;46.052;14.544;2023-02-18T10:23:22;99154.81;;;9.85;90.04
56182;BME280;51963;46.052;14.544;2023-02-18T10:25:48;99145.91;;;9.78;90.62
56182;BME280;51963;46.052;14.544;2023-02-18T10:28:15;99127.59;;;9.84;90.64
56182;BME280;51963;46.052;14.544;2023-02-18T10:30:47;99133.84;;;9.67;92.11
56182;BME280;51963;46.052;14.544;2023-02-18T10:38:25;99134.50;;;9.69;91.40
56182;BME280;51963;46.052;14.544;2023-02-18T10:41:01;99132.19;;;9.82;90.21
56182;BME280;51963;46.052;14.544;2023-02-18T10:50:52;99135.34;;;9.78;91.00
56182;BME280;51963;46.052;14.544;2023-02-18T10:53:29;99136.81;;;9.89;90.13
56182;BME280;51963;46.052;14.544;2023-02-18T10:55:56;99136.34;;;9.93;90.20
56182;BME280;51963;46.052;14.544;2023-02-18T11:00:53;99133.19;;;9.90;90.42
56182;BME280;51963;46.052;14.544;2023-02-18T11:03:19;99124.94;;;10.01;89.29
56182;BME280;51963;46.052;14.544;2023-02-18T11:05:47;99115.38;;;9.92;89.53
56182;BME280;51963;46.052;14.544;2023-02-18T11:08:15;99127.25;;;9.96;89.39
56182;BME280;51963;46.052;14.544;2023-02-18T11:10:42;99116.03;;;10.02;89.16
56182;BME280;51963;46.052;14.544;2023-02-18T11:13:09;99105.78;;;10.07;87.81
56182;BME280;51963;46.052;14.544;2023-02-18T11:15:37;99092.84;;;10.37;85.92
56182;BME280;51963;46.052;14.544;2023-02-18T11:20:59;99091.56;;;10.41;85.68
56182;BME280;51963;46.052;14.544;2023-02-18T11:23:25;99101.78;;;10.53;84.39
56182;BME280;51963;46.052;14.544;2023-02-18T11:25:52;99088.75;;;10.43;85.83
56182;BME280;51963;46.052;14.544;2023-02-18T11:30:45;99088.69;;;10.68;84.11
56182;BME280;51963;46.052;14.544;2023-02-18T11:33:19;99087.22;;;10.57;83.52
56182;BME280;51963;46.052;14.544;2023-02-18T11:35:49;99081.91;;;10.74;83.28
56182;BME280;51963;46.052;14.544;2023-02-18T11:38:20;99085.94;;;10.93;81.10
56182;BME280;51963;46.052;14.544;2023-02-18T11:40:52;99070.25;;;10.91;82.26
56182;BME280;51963;46.052;14.544;2023-02-18T11:43:19;99087.44;;;11.27;80.31
56182;BME280;51963;46.052;14.544;2023-02-18T11:45:45;99081.88;;;11.13;79.72
56182;BME280;51963;46.052;14.544;2023-02-18T11:48:18;99077.69;;;11.27;79.79
56182;BME280;51963;46.052;14.544;2023-02-18T11:50:49;99068.94;;;10.95;79.59
56182;BME280;51963;46.052;14.544;2023-02-18T11:53:25;99076.56;;;10.90;81.11
56182;BME280;51963;46.052;14.544;2023-02-18T11:55:56;99081.50;;;10.93;79.87
56182;BME280;51963;46.052;14.544;2023-02-18T11:58:22;99074.94;;;10.81;80.11
56182;BME280;51963;46.052;14.544;2023-02-18T12:00:48;99062.53;;;10.81;80.59
56182;BME280;51963;46.052;14.544;2023-02-18T12:03:37;99065.28;;;10.96;79.54
56182;BME280;51963;46.052;14.544;2023-02-18T12:06:08;99062.59;;;11.05;79.53
56182;BME280;51963;46.052;14.544;2023-02-18T12:08:39;99052.47;;;11.08;78.68
56182;BME280;51963;46.052;14.544;2023-02-18T12:11:13;99061.00;;;10.95;79.33
56182;BME280;51963;46.052;14.544;2023-02-18T12:13:49;99059.50;;;11.24;78.35
56182;BME280;51963;46.052;14.544;2023-02-18T12:37:19;99003.91;;;11.24;76.20
56182;BME280;51963;46.052;14.544;2023-02-18T12:44:51;99010.13;;;11.55;74.61
56182;BME280;51963;46.052;14.544;2023-02-18T12:52:29;98994.59;;;11.05;77.41
56182;BME280;51963;46.052;14.544;2023-02-18T13:00:12;98968.38;;;10.95;78.42
56182;BME280;51963;46.052;14.544;2023-02-18T13:10:30;98960.81;;;10.92;78.01
56182;BME280;51963;46.052;14.544;2023-02-18T13:15:44;98945.78;;;11.31;77.37
56182;BME280;51963;46.052;14.544;2023-02-18T13:18:26;98938.63;;;11.40;75.87
56182;BME280;51963;46.052;14.544;2023-02-18T13:21:03;98947.91;;;11.36;76.40
56182;BME280;51963;46.052;14.544;2023-02-18T13:23:34;98944.25;;;11.37;75.81
56182;BME280;51963;46.052;14.544;2023-02-18T13:26:01;98931.94;;;11.06;77.33
56182;BME280;51963;46.052;14.544;2023-02-18T13:28:50;98930.75;;;11.32;76.58
56182;BME280;51963;46.052;14.544;2023-02-18T13:38:59;98917.88;;;11.28;76.19
56182;BME280;51963;46.052;14.544;2023-02-18T13:41:27;98924.22;;;11.19;76.99
56182;BME280;51963;46.052;14.544;2023-02-18T13:43:52;98906.34;;;11.21;76.76
56182;BME280;51963;46.052;14.544;2023-02-18T13:46:22;98907.22;;;11.13;76.80
56182;BME280;51963;46.052;14.544;2023-02-18T13:51:14;98892.41;;;11.42;75.70
56182;BME280;51963;46.052;14.544;2023-02-18T13:53:41;98885.66;;;11.40;75.70
56182;BME280;51963;46.052;14.544;2023-02-18T13:56:08;98879.00;;;11.44;75.74
56182;BME280;51963;46.052;14.544;2023-02-18T13:58:42;98865.97;;;11.57;74.08
56182;BME280;51963;46.052;14.544;2023-02-18T14:01:13;98880.28;;;11.48;74.70
56182;BME280;51963;46.052;14.544;2023-02-18T14:06:16;98875.44;;;11.37;75.17
56182;BME280;51963;46.052;14.544;2023-02-18T14:08:42;98872.06;;;11.58;74.37
56182;BME280;51963;46.052;14.544;2023-02-18T14:16:05;98867.09;;;11.25;75.37
56182;BME280;51963;46.052;14.544;2023-02-18T14:18:33;98861.00;;;11.24;76.13
56182;BME280;51963;46.052;14.544;2023-02-18T14:21:18;98866.38;;;11.31;75.65
56182;BME280;51963;46.052;14.544;2023-02-18T14:23:58;98856.06;;;11.21;75.83
56182;BME280;51963;46.052;14.544;2023-02-18T14:26:31;98860.63;;;11.27;75.38
56182;BME280;51963;46.052;14.544;2023-02-18T14:29:05;98847.34;;;11.12;75.97
56182;BME280;51963;46.052;14.544;2023-02-18T14:31:33;98847.13;;;11.22;75.80
56182;BME280;51963;46.052;14.544;2023-02-18T14:36:45;98833.28;;;10.97;77.37
56182;BME280;51963;46.052;14.544;2023-02-18T14:42:03;98837.97;;;11.10;76.56
56182;BME280;51963;46.052;14.544;2023-02-18T14:49:53;98825.31;;;11.20;76.00
56182;BME280;51963;46.052;14.544;2023-02-18T14:52:33;98822.44;;;11.07;76.37
56182;BME280;51963;46.052;14.544;2023-02-18T14:55:00;98822.38;;;11.15;75.85
56182;BME280;51963;46.052;14.544;2023-02-18T14:57:36;98821.00;;;11.19;75.28
56182;BME280;51963;46.052;14.544;2023-02-18T15:00:03;98820.88;;;10.97;76.77
56182;BME280;51963;46.052;14.544;2023-02-18T15:02:34;98815.66;;;10.89;77.61
56182;BME280;51963;46.052;14.544;2023-02-18T15:05:17;98804.00;;;10.98;77.03
56182;BME280;51963;46.052;14.544;2023-02-18T15:10:21;98803.66;;;11.02;76.60
56182;BME280;51963;46.052;14.544;2023-02-18T15:12:46;98801.31;;;10.83;77.67
56182;BME280;51963;46.052;14.544;2023-02-18T15:15:22;98790.50;;;10.93;77.00